Time;durP1;ratioP1;P1;durP2;ratioP2;P2;SDS_P1;SDS_P2;PMS_P1;PMS_P2;Temp;Humidity;BMP_temperature;BMP_pressure;BME280_temperature;BME280_humidity;BME280_pressure;Samples;Min_cycle;Max_cycle;Signal;HPM_P1;HPM_P2
2021/05/16 00:01:27;;;;;;;17.25;13.25;;;461.10;2176.00;;;;;;5009817;28;20022;-76
2021/05/16 00:03:53;;;;;;;19.88;15.15;;;461.10;2176.00;;;;;;5011567;28;20034;-76
2021/05/16 00:06:18;;;;;;;19.27;13.18;;;461.10;2201.60;;;;;;5012586;28;20034;-77
2021/05/16 00:08:46;;;;;;;15.98;12.65;;;461.10;2176.00;;;;;;5012491;28;20080;-76
2021/05/16 00:11:12;;;;;;;18.88;14.48;;;461.10;2201.60;;;;;;5012069;28;20021;-76
2021/05/16 00:13:38;;;;;;;18.80;14.25;;;461.00;2201.60;;;;;;5012547;28;20030;-76
2021/05/16 00:16:04;;;;;;;19.52;15.48;;;460.90;2227.20;;;;;;5011982;28;20072;-76
2021/05/16 00:18:30;;;;;;;22.98;15.00;;;460.90;2227.20;;;;;;5012448;28;20026;-75
2021/05/16 00:20:56;;;;;;;22.25;15.73;;;460.90;2227.20;;;;;;5012222;28;20504;-76
2021/05/16 00:23:22;;;;;;;23.88;15.48;;;460.90;2227.20;;;;;;5012258;28;20049;-76
2021/05/16 00:25:47;;;;;;;17.67;14.80;;;460.90;2227.20;;;;;;4994532;28;20493;-76
2021/05/16 00:28:13;;;;;;;19.60;15.32;;;461.00;2227.20;;;;;;5011824;28;20037;-76
2021/05/16 00:30:39;;;;;;;16.08;14.23;;;460.90;2252.80;;;;;;5012182;28;20022;-76
2021/05/16 00:33:05;;;;;;;22.27;14.55;;;460.90;2252.80;;;;;;5012028;28;20057;-76
2021/05/16 00:35:32;;;;;;;16.83;14.43;;;460.90;2252.80;;;;;;5011817;28;20148;-77
2021/05/16 00:38:01;;;;;;;19.17;14.50;;;461.00;2252.80;;;;;;5011299;28;20493;-76
2021/05/16 00:40:28;;;;;;;22.00;16.80;;;460.90;2252.80;;;;;;5011670;28;20026;-77
2021/05/16 00:42:54;;;;;;;19.23;14.88;;;461.00;2252.80;;;;;;5011414;28;20045;-77
2021/05/16 00:45:22;;;;;;;22.95;14.55;;;460.90;2252.80;;;;;;5011602;28;20029;-77
2021/05/16 00:47:59;;;;;;;20.55;13.15;;;461.00;2252.80;;;;;;4994195;28;20481;-76
2021/05/16 00:50:28;;;;;;;18.17;13.10;;;461.00;2252.80;;;;;;5011838;28;20030;-76
2021/05/16 00:52:54;;;;;;;18.50;14.65;;;461.00;2252.80;;;;;;5011788;28;20489;-77
2021/05/16 00:55:21;;;;;;;21.85;14.32;;;461.10;2252.80;;;;;;5011404;28;20026;-76
2021/05/16 00:57:48;;;;;;;16.98;13.90;;;461.00;2252.80;;;;;;5009955;28;20103;-77
2021/05/16 01:00:17;;;;;;;15.52;13.82;;;460.90;2278.40;;;;;;5011275;28;20041;-76
2021/05/16 01:02:44;;;;;;;18.70;15.27;;;460.80;2304.00;;;;;;5010249;28;20022;-76
2021/05/16 01:05:12;;;;;;;17.10;14.85;;;460.80;2278.40;;;;;;5011263;28;20029;-77
2021/05/16 01:07:39;;;;;;;19.02;14.77;;;460.80;2304.00;;;;;;5011274;28;20057;-76
2021/05/16 01:10:07;;;;;;;22.35;15.55;;;461.00;2304.00;;;;;;5011594;28;20021;-77
2021/05/16 01:12:41;;;;;;;19.17;15.38;;;460.80;2304.00;;;;;;5011087;28;20026;-78
2021/05/16 01:15:09;;;;;;;16.75;14.88;;;436.10;2304.00;;;;;;5004248;28;20034;-78
2021/05/16 01:17:36;;;;;;;16.90;14.75;;;436.10;2304.00;;;;;;5011073;28;20022;-77
2021/05/16 01:20:04;;;;;;;20.08;14.38;;;436.00;2329.60;;;;;;5011022;28;20390;-77
2021/05/16 01:22:30;;;;;;;19.35;15.00;;;436.10;2329.60;;;;;;5011279;28;20022;-78
2021/05/16 01:24:56;;;;;;;18.33;15.13;;;435.90;2329.60;;;;;;5011392;28;20382;-78
2021/05/16 01:27:21;;;;;;;19.95;15.80;;;436.10;2329.60;;;;;;5011319;28;20097;-77
2021/05/16 01:29:47;;;;;;;19.25;15.65;;;435.80;2355.20;;;;;;5011038;28;20026;-77
2021/05/16 01:32:13;;;;;;;18.83;15.43;;;435.80;2355.20;;;;;;5011404;28;20026;-78
2021/05/16 01:34:41;;;;;;;20.17;14.93;;;435.60;2355.20;;;;;;5010654;28;20092;-77
2021/05/16 01:37:10;;;;;;;29.33;15.68;;;435.50;2355.20;;;;;;5011001;28;20038;-77
2021/05/16 01:39:37;;;;;;;15.98;14.27;;;435.60;2355.20;;;;;;4993452;28;20034;-77
2021/05/16 01:42:03;;;;;;;18.52;15.80;;;435.60;2355.20;;;;;;5011109;28;20022;-77
2021/05/16 01:44:31;;;;;;;18.58;15.15;;;435.70;2355.20;;;;;;4993603;28;20025;-77
2021/05/16 01:47:03;;;;;;;18.48;15.60;;;435.80;2355.20;;;;;;5010877;28;20021;-78
2021/05/16 01:50:02;;;;;;;19.90;15.23;;;435.80;2329.60;;;;;;5011359;28;20022;-78
2021/05/16 01:52:30;;;;;;;17.25;15.02;;;435.80;2355.20;;;;;;5014869;28;20098;-78
2021/05/16 01:54:56;;;;;;;18.73;14.13;;;435.80;2329.60;;;;;;5014553;28;20062;-78
2021/05/16 01:57:23;;;;;;;18.02;16.15;;;435.80;2355.20;;;;;;5014854;28;20073;-77
2021/05/16 01:59:49;;;;;;;18.10;15.23;;;435.80;2355.20;;;;;;5014646;28;20026;-78
2021/05/16 02:02:16;;;;;;;19.55;15.75;;;435.80;2329.60;;;;;;5014646;28;20473;-78
2021/05/16 02:04:43;;;;;;;18.85;15.07;;;435.80;2355.20;;;;;;5014530;28;20029;-78
2021/05/16 02:07:11;;;;;;;25.33;15.98;;;435.80;2355.20;;;;;;5014518;28;20069;-78
2021/05/16 02:09:37;;;;;;;20.08;15.90;;;435.80;2355.20;;;;;;4996928;28;20187;-78
2021/05/16 02:12:03;;;;;;;21.00;16.08;;;435.80;2355.20;;;;;;5014414;28;20517;-78
2021/05/16 02:14:31;;;;;;;18.25;15.80;;;435.70;2355.20;;;;;;5014294;28;20052;-78
2021/05/16 02:16:59;;;;;;;23.92;17.50;;;435.60;2355.20;;;;;;5014455;28;20489;-78
2021/05/16 02:19:25;;;;;;;19.67;16.98;;;435.40;2355.20;;;;;;5014375;28;20033;-78
2021/05/16 02:21:52;;;;;;;18.83;16.77;;;435.30;2355.20;;;;;;5014127;28;20041;-78
2021/05/16 02:24:18;;;;;;;21.05;17.23;;;435.50;2355.20;;;;;;5014338;28;20029;-77
2021/05/16 02:26:45;;;;;;;20.75;16.13;;;435.50;2355.20;;;;;;5014499;28;20026;-77
2021/05/16 02:29:12;;;;;;;19.83;17.38;;;435.50;2355.20;;;;;;5014289;28;20108;-77
2021/05/16 02:31:37;;;;;;;24.73;16.90;;;435.50;2355.20;;;;;;5013879;28;20014;-77
2021/05/16 02:34:04;;;;;;;18.10;16.20;;;435.60;2355.20;;;;;;5013175;28;20042;-77
2021/05/16 02:36:30;;;;;;;20.73;16.08;;;435.60;2355.20;;;;;;5014040;28;20046;-77
2021/05/16 02:38:56;;;;;;;20.48;15.30;;;435.60;2355.20;;;;;;5014305;28;20029;-78
2021/05/16 02:41:22;;;;;;;19.67;16.02;;;435.50;2355.20;;;;;;5013929;28;20018;-77
2021/05/16 02:43:48;;;;;;;20.10;15.30;;;435.60;2355.20;;;;;;5013224;28;20029;-77
2021/05/16 02:46:14;;;;;;;25.73;16.38;;;435.70;2355.20;;;;;;5013950;28;20021;-78
2021/05/16 02:48:40;;;;;;;20.58;16.48;;;435.80;2355.20;;;;;;5013532;28;20025;-78
2021/05/16 02:51:06;;;;;;;22.90;16.45;;;435.80;2355.20;;;;;;5013676;28;20021;-77
2021/05/16 02:53:32;;;;;;;17.92;15.85;;;435.80;2355.20;;;;;;5013538;28;20037;-77
2021/05/16 02:55:58;;;;;;;38.17;21.65;;;435.80;2355.20;;;;;;5013752;28;20034;-77
2021/05/16 02:58:24;;;;;;;34.30;20.77;;;435.90;2355.20;;;;;;5013626;28;20060;-77
2021/05/16 03:00:50;;;;;;;23.55;18.38;;;435.90;2355.20;;;;;;4978720;28;20041;-77
2021/05/16 03:03:16;;;;;;;25.83;17.40;;;435.90;2355.20;;;;;;5013600;28;20022;-77
2021/05/16 03:05:42;;;;;;;23.95;18.00;;;435.80;2355.20;;;;;;5013551;28;20029;-77
2021/05/16 03:08:07;;;;;;;29.45;17.60;;;435.70;2355.20;;;;;;5010681;28;20040;-76
2021/05/16 03:10:33;;;;;;;24.50;18.15;;;435.70;2355.20;;;;;;4995577;28;20036;-77
2021/05/16 03:12:59;;;;;;;22.38;17.80;;;435.80;2355.20;;;;;;5013428;28;20041;-77
2021/05/16 03:15:25;;;;;;;24.63;18.33;;;435.70;2355.20;;;;;;5013174;28;20026;-77
2021/05/16 03:17:50;;;;;;;21.25;17.50;;;435.50;2355.20;;;;;;5013376;28;20021;-77
2021/05/16 03:20:16;;;;;;;21.40;16.92;;;435.50;2355.20;;;;;;5013207;28;20072;-77
2021/05/16 03:22:42;;;;;;;23.38;19.25;;;435.50;2355.20;;;;;;5013152;28;20021;-76
2021/05/16 03:25:10;;;;;;;22.10;19.20;;;435.40;2355.20;;;;;;5010544;28;20022;-76
2021/05/16 03:27:37;;;;;;;27.70;20.38;;;435.40;2355.20;;;;;;4995398;28;20386;-76
2021/05/16 03:30:08;;;;;;;24.65;17.95;;;435.50;2355.20;;;;;;5013079;28;20512;-76
2021/05/16 03:32:35;;;;;;;26.13;19.25;;;435.70;2355.20;;;;;;5013027;28;20025;-76
2021/05/16 03:35:01;;;;;;;24.08;19.85;;;435.70;2355.20;;;;;;5013112;28;20367;-76
2021/05/16 03:37:26;;;;;;;25.50;19.70;;;435.70;2355.20;;;;;;5012658;28;20172;-76
2021/05/16 03:39:52;;;;;;;31.42;21.52;;;435.70;2355.20;;;;;;5013165;28;20034;-76
2021/05/16 03:42:18;;;;;;;25.92;18.48;;;435.80;2355.20;;;;;;5012940;28;20022;-76
2021/05/16 03:44:44;;;;;;;26.70;19.17;;;435.60;2355.20;;;;;;5012788;28;20108;-76
2021/05/16 03:47:09;;;;;;;25.13;19.77;;;435.50;2355.20;;;;;;5011932;28;20380;-76
2021/05/16 03:49:35;;;;;;;28.48;20.38;;;435.40;2355.20;;;;;;5012505;28;20029;-76
2021/05/16 03:52:01;;;;;;;29.35;19.55;;;435.50;2355.20;;;;;;5012558;28;20041;-76
2021/05/16 03:54:27;;;;;;;21.83;18.90;;;435.60;2355.20;;;;;;5012486;28;20073;-76
2021/05/16 03:56:52;;;;;;;27.20;20.77;;;435.80;2355.20;;;;;;5012719;28;20406;-76
2021/05/16 03:59:18;;;;;;;27.65;20.40;;;435.80;2355.20;;;;;;5012340;28;20034;-77
2021/05/16 04:01:44;;;;;;;29.40;22.48;;;435.80;2355.20;;;;;;5012475;28;20022;-76
2021/05/16 04:04:10;;;;;;;29.10;21.40;;;435.90;2355.20;;;;;;5012271;28;20032;-76
2021/05/16 04:06:35;;;;;;;27.20;21.02;;;435.90;2355.20;;;;;;5012498;28;20363;-77
2021/05/16 04:09:01;;;;;;;27.70;22.15;;;436.00;2355.20;;;;;;4994236;28;20481;-76
2021/05/16 04:11:27;;;;;;;30.08;22.08;;;436.00;2355.20;;;;;;5012226;28;20083;-76
2021/05/16 04:13:52;;;;;;;28.67;23.15;;;436.10;2355.20;;;;;;5011281;28;20517;-77
2021/05/16 04:16:18;;;;;;;27.10;23.30;;;436.10;2355.20;;;;;;5012171;28;20072;-76
2021/05/16 04:18:44;;;;;;;28.15;22.02;;;436.10;2355.20;;;;;;5011999;28;20109;-77
2021/05/16 04:21:10;;;;;;;24.77;21.90;;;436.10;2355.20;;;;;;5011855;28;20018;-76
2021/05/16 04:23:35;;;;;;;28.48;22.45;;;436.00;2355.20;;;;;;5003883;28;20033;-76
2021/05/16 04:26:01;;;;;;;24.73;21.20;;;435.90;2355.20;;;;;;5011886;28;20029;-76
2021/05/16 04:28:27;;;;;;;26.15;22.83;;;435.90;2355.20;;;;;;5012196;28;20504;-76
2021/05/16 04:30:53;;;;;;;27.98;23.08;;;436.00;2355.20;;;;;;5012001;28;20108;-77
2021/05/16 04:33:19;;;;;;;33.50;23.83;;;436.10;2355.20;;;;;;4994270;28;20046;-75
2021/05/16 04:35:45;;;;;;;35.28;25.10;;;436.10;2355.20;;;;;;5011433;28;20456;-75
2021/05/16 04:38:10;;;;;;;33.00;24.55;;;436.10;2355.20;;;;;;5012069;28;20033;-76
2021/05/16 04:40:36;;;;;;;33.10;24.30;;;436.10;2355.20;;;;;;5011670;28;20022;-75
2021/05/16 04:43:02;;;;;;;30.15;23.20;;;436.10;2355.20;;;;;;5011541;28;20026;-76
2021/05/16 04:45:28;;;;;;;33.97;23.48;;;436.10;2355.20;;;;;;5011719;28;20084;-76
2021/05/16 04:47:53;;;;;;;32.92;23.25;;;436.10;2355.20;;;;;;5011522;28;20033;-75
2021/05/16 04:50:19;;;;;;;32.72;23.67;;;436.10;2355.20;;;;;;5011785;28;20428;-76
2021/05/16 04:52:46;;;;;;;32.20;23.67;;;436.10;2355.20;;;;;;5011421;28;20022;-76
2021/05/16 04:55:14;;;;;;;25.60;21.38;;;436.10;2355.20;;;;;;5011629;28;20038;-75
2021/05/16 04:57:40;;;;;;;32.67;23.38;;;436.10;2355.20;;;;;;5011382;28;20026;-76
2021/05/16 05:00:07;;;;;;;29.33;21.98;;;436.10;2355.20;;;;;;5011758;28;20048;-75
2021/05/16 05:02:40;;;;;;;25.35;21.35;;;436.10;2355.20;;;;;;5011054;28;20026;-76
2021/05/16 05:05:06;;;;;;;26.60;22.05;;;436.10;2355.20;;;;;;5011362;28;20054;-76
2021/05/16 05:07:33;;;;;;;26.67;20.27;;;436.10;2355.20;;;;;;5011202;28;20029;-75
2021/05/16 05:09:59;;;;;;;25.67;19.83;;;436.10;2355.20;;;;;;5011435;28;20101;-76
2021/05/16 05:12:25;;;;;;;26.17;18.38;;;436.10;2355.20;;;;;;5011634;28;20100;-76
2021/05/16 05:14:50;;;;;;;26.92;17.73;;;436.00;2355.20;;;;;;4993559;28;20117;-76
2021/05/16 05:17:16;;;;;;;26.20;20.15;;;436.00;2355.20;;;;;;5011407;28;20018;-76
2021/05/16 05:19:42;;;;;;;23.50;20.40;;;435.90;2355.20;;;;;;5011298;28;20478;-76
2021/05/16 05:22:08;;;;;;;28.15;22.33;;;435.90;2355.20;;;;;;5011343;28;20198;-77
2021/05/16 05:24:34;;;;;;;25.90;20.60;;;435.80;2355.20;;;;;;5013463;28;20042;-77
2021/05/16 05:26:59;;;;;;;23.35;19.80;;;435.70;2355.20;;;;;;5015589;28;20072;-76
2021/05/16 05:29:25;;;;;;;28.35;22.20;;;435.50;2355.20;;;;;;5015223;28;20529;-76
2021/05/16 05:31:51;;;;;;;29.08;22.08;;;435.50;2355.20;;;;;;5015225;28;20101;-76
2021/05/16 05:34:16;;;;;;;26.38;22.27;;;435.50;2355.20;;;;;;5015008;28;20036;-77
2021/05/16 05:36:42;;;;;;;27.48;23.45;;;435.40;2355.20;;;;;;5014802;28;20042;-76
2021/05/16 05:39:08;;;;;;;26.05;21.48;;;435.50;2355.20;;;;;;5014997;28;20084;-75
2021/05/16 05:41:34;;;;;;;25.23;20.02;;;435.70;2355.20;;;;;;5015060;28;20461;-76
2021/05/16 05:44:01;;;;;;;23.63;19.40;;;435.80;2355.20;;;;;;5015070;28;20104;-76
2021/05/16 05:46:28;;;;;;;24.33;21.13;;;435.80;2355.20;;;;;;5014725;28;20033;-76
2021/05/16 05:48:54;;;;;;;32.92;21.73;;;435.80;2355.20;;;;;;5014843;28;20045;-77
2021/05/16 05:51:20;;;;;;;31.58;23.63;;;435.70;2355.20;;;;;;5014871;28;20374;-75
2021/05/16 05:53:46;;;;;;;25.83;21.83;;;435.70;2355.20;;;;;;5014760;28;20186;-77
2021/05/16 05:56:12;;;;;;;36.97;22.30;;;435.70;2355.20;;;;;;5015324;28;20018;-77
2021/05/16 05:58:38;;;;;;;36.10;21.00;;;435.90;2355.20;;;;;;5015198;28;20034;-78
2021/05/16 06:01:04;;;;;;;24.92;20.90;;;435.90;2355.20;;;;;;4996129;28;20063;-77
2021/05/16 06:03:30;;;;;;;31.55;20.10;;;435.90;2355.20;;;;;;5014239;28;20120;-76
2021/05/16 06:05:56;;;;;;;22.42;17.65;;;435.90;2355.20;;;;;;5015137;28;20033;-76
2021/05/16 06:08:22;;;;;;;20.00;16.50;;;435.90;2355.20;;;;;;5014726;28;20033;-79
2021/05/16 06:10:48;;;;;;;15.95;14.18;;;435.90;2355.20;;;;;;5015107;28;20026;-77
2021/05/16 06:13:14;;;;;;;19.33;14.48;;;435.90;2355.20;;;;;;5014733;28;20042;-77
2021/05/16 06:15:40;;;;;;;16.63;14.13;;;435.90;2355.20;;;;;;5015077;28;20026;-78
2021/05/16 06:18:06;;;;;;;21.10;13.98;;;435.90;2355.20;;;;;;4993735;28;20459;-77
2021/05/16 06:20:33;;;;;;;21.10;17.02;;;435.90;2355.20;;;;;;4995333;28;20053;-78
2021/05/16 06:23:01;;;;;;;25.98;17.77;;;435.80;2355.20;;;;;;5014814;28;20022;-78
2021/05/16 06:25:27;;;;;;;21.15;16.45;;;435.80;2355.20;;;;;;5014986;28;20064;-77
2021/05/16 06:27:56;;;;;;;22.38;16.92;;;435.80;2355.20;;;;;;5014643;28;20030;-78
2021/05/16 06:30:22;;;;;;;20.85;16.63;;;435.80;2355.20;;;;;;5002952;28;20025;-78
2021/05/16 06:32:47;;;;;;;19.85;16.25;;;435.70;2355.20;;;;;;5014614;28;20072;-77
2021/05/16 06:35:14;;;;;;;18.98;15.93;;;435.80;2355.20;;;;;;5011667;28;20033;-78
2021/05/16 06:37:39;;;;;;;22.58;15.50;;;435.80;2355.20;;;;;;4968588;28;20514;-78
2021/05/16 06:40:06;;;;;;;23.48;14.68;;;435.90;2355.20;;;;;;4989934;28;20023;-78
2021/05/16 06:42:32;;;;;;;20.70;15.90;;;435.90;2355.20;;;;;;4973173;28;20054;-78
2021/05/16 06:44:58;;;;;;;20.77;14.63;;;435.80;2355.20;;;;;;4994537;28;20068;-77
2021/05/16 06:47:23;;;;;;;18.45;13.45;;;435.80;2355.20;;;;;;4994993;28;20019;-77
2021/05/16 06:49:53;;;;;;;20.08;14.05;;;435.80;2355.20;;;;;;4994744;28;20530;-77
2021/05/16 06:52:20;;;;;;;17.30;12.93;;;435.70;2355.20;;;;;;4994562;28;20062;-77
2021/05/16 06:54:46;;;;;;;22.33;15.05;;;435.60;2355.20;;;;;;4994792;28;20360;-78
2021/05/16 06:57:11;;;;;;;20.20;15.05;;;435.50;2355.20;;;;;;4994319;28;20026;-78
2021/05/16 06:59:37;;;;;;;19.65;14.10;;;435.50;2355.20;;;;;;4994774;28;20030;-77
2021/05/16 07:02:03;;;;;;;19.08;15.07;;;435.50;2355.20;;;;;;4994536;28;20058;-78
2021/05/16 07:04:29;;;;;;;19.83;14.90;;;435.50;2355.20;;;;;;4994404;28;20383;-78
2021/05/16 07:06:54;;;;;;;16.95;12.68;;;435.60;2355.20;;;;;;4977088;28;20030;-78
2021/05/16 07:09:20;;;;;;;19.55;12.90;;;435.60;2355.20;;;;;;4976976;28;20478;-78
2021/05/16 07:11:46;;;;;;;16.00;13.13;;;435.80;2355.20;;;;;;4994458;28;20022;-77
2021/05/16 07:14:12;;;;;;;18.42;14.40;;;435.80;2355.20;;;;;;4976564;28;20038;-77
2021/05/16 07:16:38;;;;;;;17.48;11.88;;;435.90;2355.20;;;;;;4994248;28;20018;-77
2021/05/16 07:19:03;;;;;;;15.88;12.10;;;435.90;2355.20;;;;;;4994321;28;20049;-77
2021/05/16 07:21:29;;;;;;;15.30;13.25;;;435.80;2355.20;;;;;;4994327;28;20027;-77
2021/05/16 07:23:55;;;;;;;17.52;13.27;;;435.80;2355.20;;;;;;4993139;28;20030;-77
2021/05/16 07:26:20;;;;;;;16.40;11.57;;;435.80;2355.20;;;;;;4993462;28;20019;-79
2021/05/16 07:28:46;;;;;;;18.50;12.82;;;435.70;2355.20;;;;;;4993421;28;20029;-77
2021/05/16 07:31:12;;;;;;;18.27;13.30;;;435.70;2355.20;;;;;;4994053;28;20019;-76
2021/05/16 07:33:39;;;;;;;17.83;13.63;;;435.90;2355.20;;;;;;4993702;28;20026;-77
2021/05/16 07:36:06;;;;;;;14.65;11.63;;;435.90;2355.20;;;;;;4984525;28;20093;-78
2021/05/16 07:38:32;;;;;;;12.55;10.95;;;435.90;2355.20;;;;;;5032213;28;20029;-76
2021/05/16 07:40:58;;;;;;;15.73;11.98;;;435.90;2355.20;;;;;;5032951;28;20408;-78
2021/05/16 07:43:25;;;;;;;16.52;11.80;;;435.90;2355.20;;;;;;5014372;28;20040;-80
2021/05/16 07:45:51;;;;;;;17.73;13.18;;;435.90;2355.20;;;;;;5032375;28;20017;-77
2021/05/16 07:48:17;;;;;;;16.08;11.38;;;461.10;2380.80;;;;;;5032718;28;20029;-78
2021/05/16 07:50:43;;;;;;;14.52;10.30;;;435.90;2355.20;;;;;;5032691;28;20097;-77
2021/05/16 07:53:10;;;;;;;14.57;11.15;;;435.80;2355.20;;;;;;5033106;28;20030;-78
2021/05/16 07:55:37;;;;;;;15.40;10.60;;;435.90;2355.20;;;;;;5014983;28;20444;-78
2021/05/16 07:58:03;;;;;;;15.55;12.68;;;435.90;2355.20;;;;;;5032980;28;20017;-78
2021/05/16 08:00:29;;;;;;;14.10;11.50;;;435.80;2355.20;;;;;;5032629;28;20036;-78
2021/05/16 08:02:55;;;;;;;15.50;11.18;;;435.90;2355.20;;;;;;5032927;28;20100;-78
2021/05/16 08:05:21;;;;;;;20.02;13.20;;;435.90;2355.20;;;;;;5032576;28;20079;-77
2021/05/16 08:07:47;;;;;;;22.38;13.02;;;435.80;2355.20;;;;;;5014792;28;20406;-77
2021/05/16 08:10:14;;;;;;;19.08;13.30;;;435.50;2355.20;;;;;;5032421;28;20105;-77
2021/05/16 08:12:40;;;;;;;18.52;13.18;;;435.70;2355.20;;;;;;5032325;28;20100;-77
2021/05/16 08:15:08;;;;;;;16.30;13.27;;;435.50;2355.20;;;;;;5031810;28;20547;-78
2021/05/16 08:17:34;;;;;;;17.35;13.98;;;435.30;2355.20;;;;;;5013984;28;20029;-77
2021/05/16 08:20:00;;;;;;;16.00;13.55;;;435.40;2355.20;;;;;;5032059;28;20477;-78
2021/05/16 08:22:26;;;;;;;21.45;14.50;;;435.40;2355.20;;;;;;5031654;28;20068;-78
2021/05/16 08:24:52;;;;;;;19.73;14.27;;;435.20;2355.20;;;;;;5031260;28;20029;-78
2021/05/16 08:27:18;;;;;;;18.30;13.05;;;435.20;2355.20;;;;;;5030005;28;20053;-77
2021/05/16 08:29:45;;;;;;;16.80;14.75;;;410.50;2355.20;;;;;;5011717;28;20030;-77
2021/05/16 08:32:12;;;;;;;18.77;14.07;;;410.50;2355.20;;;;;;5030115;28;20066;-78
2021/05/16 08:34:38;;;;;;;15.90;13.73;;;435.20;2355.20;;;;;;5012046;28;20828;-77
2021/05/16 08:37:07;;;;;;;29.08;19.88;;;435.30;2355.20;;;;;;5030175;28;20049;-76
2021/05/16 08:39:33;;;;;;;17.42;14.65;;;435.30;2355.20;;;;;;5029927;28;20022;-78
2021/05/16 08:41:59;;;;;;;17.17;13.20;;;435.50;2355.20;;;;;;5028559;28;20032;-77
2021/05/16 08:44:24;;;;;;;11.40;10.10;;;435.60;2355.20;;;;;;5029926;28;20079;-76
2021/05/16 08:46:51;;;;;;;15.27;10.80;;;435.70;2355.20;;;;;;5030148;28;20021;-76
2021/05/16 08:49:18;;;;;;;5.63;3.78;;;435.90;2355.20;;;;;;5011016;28;20155;-76
2021/05/16 08:51:50;;;;;;;5.68;3.40;;;435.90;2355.20;;;;;;5011823;28;20035;-75
2021/05/16 08:54:20;;;;;;;4.63;2.88;;;435.90;2355.20;;;;;;5031307;28;20033;-76
2021/05/16 08:56:50;;;;;;;6.32;3.22;;;435.90;2355.20;;;;;;5031507;28;20040;-78
2021/05/16 08:59:16;;;;;;;5.72;3.90;;;435.90;2355.20;;;;;;5031158;28;20461;-75
2021/05/16 09:01:55;;;;;;;7.32;4.07;;;436.10;2355.20;;;;;;5031344;28;20064;-76
2021/05/16 09:04:34;;;;;;;7.13;4.90;;;460.80;2380.80;;;;;;5031240;28;20033;-76
2021/05/16 09:07:01;;;;;;;10.27;6.18;;;460.90;2380.80;;;;;;5031768;28;20377;-75
2021/05/16 09:09:28;;;;;;;12.90;7.10;;;460.80;2380.80;;;;;;5031469;28;20021;-76
2021/05/16 09:11:59;;;;;;;13.50;9.02;;;460.90;2380.80;;;;;;5031836;28;20417;-78
2021/05/16 09:14:44;;;;;;;8.88;7.57;;;461.00;2380.80;;;;;;5029247;28;20120;-75
2021/05/16 09:17:39;;;;;;;10.45;6.10;;;460.90;2380.80;;;;;;5031514;28;20059;-75
2021/05/16 09:20:06;;;;;;;6.85;5.38;;;460.80;2380.80;;;;;;4968738;28;20046;-75
2021/05/16 09:22:39;;;;;;;10.65;5.05;;;460.80;2380.80;;;;;;4967005;28;20085;-76
2021/05/16 09:25:14;;;;;;;4.25;3.17;;;460.90;2380.80;;;;;;4960010;28;20182;-75
2021/05/16 09:27:42;;;;;;;7.38;3.03;;;460.90;2380.80;;;;;;4970096;28;20593;-74
2021/05/16 09:30:20;;;;;;;5.18;2.97;;;461.00;2380.80;;;;;;4968789;28;20125;-75
2021/05/16 09:32:48;;;;;;;4.72;2.10;;;461.20;2380.80;;;;;;4964202;28;20038;-76
2021/05/16 09:35:13;;;;;;;3.20;2.03;;;461.40;2380.80;;;;;;4969513;28;20066;-75
2021/05/16 09:38:21;;;;;;;3.50;1.70;;;461.50;2355.20;;;;;;4969686;28;20162;-76
2021/05/16 09:40:49;;;;;;;;;;;461.50;2304.00;;;;;;4904040;29;20389;-75
2021/05/16 09:43:28;;;;;;;3.75;2.08;;;461.70;2304.00;;;;;;4912290;29;19963;-76
2021/05/16 09:46:05;;;;;;;5.70;2.40;;;461.50;2380.80;;;;;;4900036;29;20059;-79
2021/05/16 09:48:36;;;;;;;1.90;1.30;;;486.40;2380.80;;;;;;4907373;29;20103;-76
2021/05/16 09:51:24;;;;;;;2.00;1.40;;;486.40;2304.00;;;;;;4912834;29;20119;-76
2021/05/16 09:53:56;;;;;;;3.80;1.98;;;486.50;2304.00;;;;;;4912671;29;20059;-76
2021/05/16 09:56:25;;;;;;;3.28;1.77;;;486.50;2329.60;;;;;;4938723;28;20121;-77
2021/05/16 09:58:53;;;;;;;6.25;2.10;;;486.80;2252.80;;;;;;4967488;28;20034;-77
2021/05/16 10:01:21;;;;;;;2.30;1.60;;;487.10;2304.00;;;;;;4953787;28;20038;-76
2021/05/16 10:03:48;;;;;;;2.60;1.70;;;487.10;2278.40;;;;;;4970217;28;20129;-77
2021/05/16 10:06:15;;;;;;;3.75;1.60;;;487.10;2278.40;;;;;;4969840;28;20019;-76
2021/05/16 10:08:44;;;;;;;3.25;2.10;;;487.10;2252.80;;;;;;4970095;28;20101;-76
2021/05/16 10:11:12;;;;;;;4.38;2.00;;;487.00;2227.20;;;;;;4972708;28;20015;-77
2021/05/16 10:13:41;;;;;;;3.42;2.50;;;487.10;2252.80;;;;;;4978833;28;20450;-77
2021/05/16 10:16:12;;;;;;;7.90;2.08;;;486.80;2329.60;;;;;;5031646;28;20219;-77
2021/05/16 10:18:39;;;;;;;4.75;2.80;;;487.00;2304.00;;;;;;5006990;28;20025;-77
2021/05/16 10:21:06;;;;;;;4.25;2.58;;;512.10;2329.60;;;;;;5032931;28;20124;-76
2021/05/16 10:23:37;;;;;;;7.70;2.85;;;512.20;2150.40;;;;;;5033984;28;20029;-76
2021/05/16 10:26:25;;;;;;;4.22;2.25;;;487.30;2201.60;;;;;;5033896;28;20052;-76
2021/05/16 10:28:54;;;;;;;5.90;2.92;;;487.30;2099.20;;;;;;5034038;28;20021;-74
2021/05/16 10:31:42;;;;;;;4.18;2.85;;;487.30;2201.60;;;;;;5033996;28;20017;-76
2021/05/16 10:34:31;;;;;;;5.05;3.17;;;512.30;2201.60;;;;;;5016312;28;20044;-76
2021/05/16 10:37:03;;;;;;;7.43;2.70;;;512.60;2176.00;;;;;;5020856;28;20080;-76
2021/05/16 10:39:38;;;;;;;4.15;2.70;;;512.30;2099.20;;;;;;5033719;28;20056;-75
2021/05/16 10:42:40;;;;;;;6.38;2.80;;;487.30;2150.40;;;;;;5031704;28;20155;-75
2021/05/16 10:45:12;;;;;;;3.20;2.38;;;487.10;2227.20;;;;;;4969360;28;20462;-77
2021/05/16 10:47:52;;;;;;;5.53;3.42;;;487.00;2278.40;;;;;;4969668;28;20490;-76
2021/05/16 10:50:24;;;;;;;4.95;2.67;;;486.60;2278.40;;;;;;4969428;28;20526;-77
2021/05/16 10:53:16;;;;;;;5.35;2.53;;;486.60;2278.40;;;;;;4970018;28;20105;-76
2021/05/16 10:55:44;;;;;;;6.03;3.03;;;486.50;2278.40;;;;;;4968519;28;20068;-76
2021/05/16 10:58:33;;;;;;;4.95;2.50;;;486.40;2278.40;;;;;;4969919;28;20022;-77
2021/05/16 11:01:07;;;;;;;4.80;2.42;;;486.40;2252.80;;;;;;4968462;28;20019;-79
2021/05/16 11:04:01;;;;;;;3.50;2.35;;;486.40;2252.80;;;;;;4973150;28;20026;-76
2021/05/16 11:06:39;;;;;;;6.90;2.83;;;461.70;2278.40;;;;;;4950811;28;20471;-78
2021/05/16 11:09:10;;;;;;;11.52;3.20;;;486.40;2278.40;;;;;;4967151;28;20035;-76
2021/05/16 11:11:56;;;;;;;4.10;2.63;;;486.40;2355.20;;;;;;4967173;28;20439;-78
2021/05/16 11:14:38;;;;;;;4.93;2.92;;;461.70;2304.00;;;;;;4969687;28;20565;-77
2021/05/16 11:17:09;;;;;;;6.15;2.45;;;486.40;2304.00;;;;;;4966435;28;20088;-76
2021/05/16 11:19:36;;;;;;;6.10;2.90;;;486.40;2304.00;;;;;;4953148;28;20039;-76
2021/05/16 11:22:12;;;;;;;4.10;2.15;;;486.40;2329.60;;;;;;5016754;28;20036;-76
2021/05/16 11:24:39;;;;;;;;;;;486.40;2176.00;;;;;;5033308;28;20030;-77
2021/05/16 11:27:19;;;;;;;4.35;2.30;;;486.40;2278.40;;;;;;5032746;28;19913;-75
2021/05/16 11:29:49;;;;;;;7.70;2.75;;;486.50;2252.80;;;;;;5032589;28;20105;-77
2021/05/16 11:32:19;;;;;;;6.85;2.78;;;486.40;2201.60;;;;;;5032852;28;20025;-76
2021/05/16 11:34:45;;;;;;;5.28;2.60;;;486.50;2278.40;;;;;;5014605;28;20095;-77
2021/05/16 11:37:15;;;;;;;4.63;2.70;;;486.60;2278.40;;;;;;5032576;28;20054;-77
2021/05/16 11:39:41;;;;;;;4.22;1.92;;;486.70;2278.40;;;;;;5032337;28;20053;-79
2021/05/16 11:42:07;;;;;;;4.03;2.75;;;486.70;2201.60;;;;;;5032331;28;20025;-77
2021/05/16 11:44:34;;;;;;;4.65;2.17;;;486.80;2227.20;;;;;;5032465;28;20036;-79
2021/05/16 11:46:59;;;;;;;3.55;1.88;;;486.70;2201.60;;;;;;5032305;28;20446;-78
2021/05/16 11:49:29;;;;;;;6.47;2.28;;;486.70;2176.00;;;;;;5032520;28;20097;-78
2021/05/16 11:51:59;;;;;;;4.75;2.58;;;486.90;2227.20;;;;;;5032299;28;20020;-78
2021/05/16 11:54:34;;;;;;;3.03;2.00;;;487.10;2176.00;;;;;;5031246;28;20121;-78
2021/05/16 11:57:00;;;;;;;5.85;2.10;;;487.00;2073.60;;;;;;5029782;28;20071;-78
2021/05/16 11:59:29;;;;;;;4.10;2.00;;;512.10;2022.40;;;;;;5031381;28;20030;-78
2021/05/16 12:01:55;;;;;;;8.23;2.75;;;512.50;1996.80;;;;;;5013487;28;20029;-78
2021/05/16 12:04:21;;;;;;;5.50;2.10;;;537.60;2048.00;;;;;;5031238;28;20021;-78
2021/05/16 12:06:57;;;;;;;3.60;2.10;;;537.60;1971.20;;;;;;5031630;28;20424;-78
2021/05/16 12:09:25;;;;;;;4.90;2.78;;;538.00;1920.00;;;;;;5012469;28;20044;-78